createdAt,value
2018-04-16T00:00:39.838Z,1004.46
2018-04-16T00:05:36.667Z,1004.34
2018-04-16T00:10:32.464Z,1004.33
2018-04-16T00:15:33.089Z,1004.32
2018-04-16T00:20:32.911Z,1004.41
2018-04-16T00:25:32.809Z,1004.41
2018-04-16T00:30:27.532Z,1004.39
2018-04-16T00:35:28.568Z,1004.21
2018-04-16T00:40:24.050Z,1004.32
2018-04-16T00:45:21.019Z,1004.28
2018-04-16T00:50:16.793Z,1004.26
2018-04-16T00:55:16.535Z,1004.32
2018-04-16T01:00:16.497Z,1004.35
2018-04-16T01:05:12.757Z,1004.39
2018-04-16T01:10:15.093Z,1004.38
2018-04-16T01:15:11.477Z,1004.40
2018-04-16T01:20:08.770Z,1004.44
2018-04-16T01:25:10.768Z,1004.50
2018-04-16T01:30:06.550Z,1004.49
2018-04-16T01:35:06.994Z,1004.57
2018-04-16T01:40:06.680Z,1004.58
2018-04-16T01:45:06.064Z,1004.59
2018-04-16T01:50:06.820Z,1004.46
2018-04-16T01:55:01.787Z,1004.55
2018-04-16T01:59:57.504Z,1004.66
2018-04-16T02:04:53.668Z,1004.60
2018-04-16T02:09:53.386Z,1004.68
2018-04-16T02:14:49.795Z,1004.65
2018-04-16T02:19:46.547Z,1004.63
2018-04-16T02:24:46.467Z,1004.65
2018-04-16T02:29:42.648Z,1004.54
2018-04-16T02:34:39.320Z,1004.53
2018-04-16T02:39:40.683Z,1004.61
2018-04-16T02:44:37.385Z,1004.62
2018-04-16T02:49:39.508Z,1004.72
2018-04-16T02:54:34.073Z,1004.70
2018-04-16T02:59:29.995Z,1004.73
2018-04-16T03:04:30.710Z,1004.72
2018-04-16T03:09:26.908Z,1004.75
2018-04-16T03:14:28.534Z,1004.77
2018-04-16T03:19:24.299Z,1004.79
2018-04-16T03:24:23.960Z,1004.83
2018-04-16T03:29:23.183Z,1004.77
2018-04-16T03:34:18.923Z,1004.84
2018-04-16T03:39:14.617Z,1004.84
2018-04-16T03:44:15.234Z,1004.95
2018-04-16T03:49:16.007Z,1005.01
2018-04-16T03:54:11.606Z,1005.01
2018-04-16T03:59:07.268Z,1005.04
2018-04-16T04:04:03.210Z,1005.10
2018-04-16T04:08:58.802Z,1005.03
2018-04-16T04:13:55.592Z,1005.13
2018-04-16T04:18:52.149Z,1005.19
2018-04-16T04:23:51.743Z,1005.16
2018-04-16T04:28:49.755Z,1005.24
2018-04-16T04:33:52.697Z,1005.22
2018-04-16T04:38:53.691Z,1005.32
2018-04-16T04:43:48.703Z,1005.41
2018-04-16T04:48:49.903Z,1005.44
2018-04-16T04:53:49.573Z,1005.44
2018-04-16T04:58:44.559Z,1005.47
2018-04-16T05:03:41.663Z,1005.51
2018-04-16T05:08:37.328Z,1005.62
2018-04-16T05:13:34.156Z,1005.61
2018-04-16T05:18:35.172Z,1005.68
2018-04-16T05:23:31.408Z,1005.71
2018-04-16T05:28:32.089Z,1005.75
2018-04-16T05:33:32.116Z,1005.85
2018-04-16T05:38:27.432Z,1005.99
2018-04-16T05:43:24.481Z,1006.19
2018-04-16T05:48:25.311Z,1006.11
2018-04-16T05:53:25.314Z,1006.24
2018-04-16T05:58:25.295Z,1006.27
2018-04-16T06:03:20.168Z,1006.39
2018-04-16T06:08:21.136Z,1006.41
2018-04-16T06:13:17.409Z,1006.45
2018-04-16T06:18:14.812Z,1006.46
2018-04-16T06:23:16.250Z,1006.45
2018-04-16T06:28:16.638Z,1006.51
2018-04-16T06:33:13.870Z,1006.50
2018-04-16T06:38:14.367Z,1006.47
2018-04-16T06:43:10.393Z,1006.62
2018-04-16T06:48:06.221Z,1006.66
2018-04-16T06:53:02.680Z,1006.72
2018-04-16T06:58:01.466Z,1006.71
2018-04-16T07:03:01.346Z,1006.78
2018-04-16T07:07:58.987Z,1006.89
2018-04-16T07:13:01.069Z,1006.98
2018-04-16T07:17:59.803Z,1006.81
2018-04-16T07:23:00.055Z,1006.92
2018-04-16T07:27:56.437Z,1006.89
2018-04-16T07:32:57.084Z,1007.03
2018-04-16T07:42:56.540Z,1007.29
2018-04-16T07:47:51.780Z,1007.32
2018-04-16T07:52:48.990Z,1007.33
2018-04-16T07:57:48.624Z,1007.47
2018-04-16T08:02:49.035Z,1007.33
2018-04-16T08:07:46.656Z,1007.60
2018-04-16T08:12:49.125Z,1007.66
2018-04-16T08:17:49.076Z,1007.69
2018-04-16T08:22:46.468Z,1007.65
2018-04-16T08:27:49.002Z,1007.61
2018-04-16T08:32:49.846Z,1007.77
2018-04-16T08:37:54.560Z,1007.60
2018-04-16T08:42:53.648Z,1007.67
2018-04-16T08:47:48.085Z,1007.80
2018-04-16T08:52:49.124Z,1007.75
2018-04-16T08:57:44.304Z,1007.85
2018-04-16T09:02:41.047Z,1007.85
2018-04-16T09:07:36.476Z,1007.94
2018-04-16T09:12:36.474Z,1008.08
2018-04-16T09:17:35.524Z,1007.98
2018-04-16T09:22:36.172Z,1007.99
2018-04-16T09:37:45.667Z,1008.14
2018-04-16T09:42:44.277Z,1008.32
2018-04-16T09:47:44.739Z,1008.25
2018-04-16T09:52:40.731Z,1008.16
2018-04-16T09:57:39.180Z,1008.31
2018-04-16T10:02:39.236Z,1008.23
2018-04-16T10:07:40.579Z,1008.39
2018-04-16T10:17:45.082Z,1008.60
2018-04-16T10:22:46.267Z,1008.21
2018-04-16T10:27:40.811Z,1008.54
2018-04-16T10:32:42.262Z,1008.21
2018-04-16T10:37:40.063Z,1008.56
2018-04-16T10:42:34.890Z,1008.25
2018-04-16T10:47:36.646Z,1008.32
2018-04-16T10:52:33.981Z,1008.29
2018-04-16T10:57:30.237Z,1008.28
2018-04-16T11:02:30.329Z,1008.40
2018-04-16T11:07:29.759Z,1008.41
2018-04-16T11:12:30.546Z,1008.52
2018-04-16T11:17:28.140Z,1008.31
2018-04-16T11:22:22.445Z,1008.44
2018-04-16T11:27:18.075Z,1008.52
2018-04-16T11:32:17.731Z,1008.65
2018-04-16T11:37:21.722Z,1008.55
2018-04-16T11:42:17.640Z,1008.54
2018-04-16T11:47:22.132Z,1008.61
2018-04-16T11:52:16.689Z,1008.54
2018-04-16T11:57:20.204Z,1008.65
2018-04-16T12:02:16.659Z,1008.51
2018-04-16T12:07:09.567Z,1008.64
2018-04-16T12:12:04.566Z,1008.70
2018-04-16T12:17:00.608Z,1008.74
2018-04-16T12:21:55.784Z,1008.61
2018-04-16T12:26:52.690Z,1008.64
2018-04-16T12:31:48.531Z,1008.63
2018-04-16T12:36:45.387Z,1008.72
2018-04-16T12:46:44.275Z,1008.70
2018-04-16T12:51:39.755Z,1008.80
2018-04-16T12:56:36.796Z,1008.84
2018-04-16T13:06:37.805Z,1008.95
2018-04-16T13:11:36.503Z,1009.06
2018-04-16T13:16:31.594Z,1008.96
2018-04-16T13:21:29.609Z,1009.07
2018-04-16T13:26:26.262Z,1009.09
2018-04-16T13:31:25.412Z,1009.08
2018-04-16T13:36:24.388Z,1009.02
2018-04-16T13:41:25.211Z,1009.15
2018-04-16T13:46:19.912Z,1009.17
2018-04-16T13:51:19.994Z,1009.13
2018-04-16T13:56:16.080Z,1009.18
2018-04-16T14:01:13.128Z,1009.23
2018-04-16T14:06:09.158Z,1009.16
2018-04-16T14:11:10.979Z,1009.26
2018-04-16T14:16:05.881Z,1009.27
2018-04-16T14:21:01.776Z,1009.31
2018-04-16T14:26:03.578Z,1009.38
2018-04-16T14:31:02.998Z,1009.34
2018-04-16T14:36:04.230Z,1009.30
2018-04-16T14:41:03.679Z,1009.44
2018-04-16T14:46:04.516Z,1009.44
2018-04-16T14:51:04.263Z,1009.38
2018-04-16T14:55:59.119Z,1009.56
2018-04-16T15:00:56.238Z,1009.59
2018-04-16T15:05:56.915Z,1009.63
2018-04-16T15:10:52.740Z,1009.50
2018-04-16T15:15:49.676Z,1009.51
2018-04-16T15:20:52.071Z,1009.55
2018-04-16T15:25:48.496Z,1009.65
2018-04-16T15:30:45.186Z,1009.58
2018-04-16T15:35:48.789Z,1009.74
2018-04-16T15:40:47.523Z,1009.67
2018-04-16T15:45:42.683Z,1009.76
2018-04-16T15:50:43.202Z,1009.88
2018-04-16T15:55:38.341Z,1009.97
2018-04-16T16:00:37.254Z,1009.88
2018-04-16T16:05:34.302Z,1009.81
2018-04-16T16:10:33.997Z,1009.86
2018-04-16T16:15:31.352Z,1009.93
2018-04-16T16:20:28.777Z,1009.96
2018-04-16T16:25:28.874Z,1009.99
2018-04-16T16:30:28.263Z,1010.07
2018-04-16T16:35:27.071Z,1010.02
2018-04-16T16:40:21.936Z,1010.09
2018-04-16T16:45:19.006Z,1010.18
2018-04-16T16:50:18.464Z,1010.21
2018-04-16T16:55:17.513Z,1010.30
2018-04-16T17:00:17.769Z,1010.35
2018-04-16T17:05:17.906Z,1010.37
2018-04-16T17:10:18.001Z,1010.47
2018-04-16T17:15:12.728Z,1010.51
2018-04-16T17:20:10.974Z,1010.60
2018-04-16T17:25:07.733Z,1010.72
2018-04-16T17:30:04.118Z,1010.79
2018-04-16T17:34:59.831Z,1010.85
2018-04-16T17:39:55.893Z,1010.90
2018-04-16T17:44:56.312Z,1010.93
2018-04-16T17:49:56.282Z,1011.15
2018-04-16T17:54:51.387Z,1011.12
2018-04-16T17:59:47.038Z,1011.22
2018-04-16T18:09:50.932Z,1011.39
2018-04-16T18:14:51.084Z,1011.52
2018-04-16T18:19:50.456Z,1011.55
2018-04-16T18:24:45.138Z,1011.62
2018-04-16T18:29:40.969Z,1011.73
2018-04-16T18:34:38.809Z,1011.80
2018-04-16T18:39:39.126Z,1011.88
2018-04-16T18:44:35.035Z,1011.95
2018-04-16T18:49:32.070Z,1012.00
2018-04-16T18:54:31.708Z,1012.10
2018-04-16T18:59:30.535Z,1012.18
2018-04-16T19:04:25.159Z,1012.37
2018-04-16T19:09:25.457Z,1012.38
2018-04-16T19:14:21.392Z,1012.42
2018-04-16T19:19:21.895Z,1012.60
2018-04-16T19:24:18.764Z,1012.65
2018-04-16T19:29:20.297Z,1012.69
2018-04-16T19:34:20.785Z,1012.80
2018-04-16T19:39:19.854Z,1012.91
2018-04-16T19:44:19.677Z,1012.90
2018-04-16T19:49:15.469Z,1013.07
2018-04-16T19:54:12.812Z,1013.15
2018-04-16T19:59:13.957Z,1013.23
2018-04-16T20:04:11.196Z,1013.16
2018-04-16T20:09:07.777Z,1013.37
2018-04-16T20:14:07.650Z,1013.38
2018-04-16T20:19:04.886Z,1013.45
2018-04-16T20:24:00.946Z,1013.53
2018-04-16T20:28:56.740Z,1013.66
2018-04-16T20:33:57.572Z,1013.70
2018-04-16T20:38:53.856Z,1013.78
2018-04-16T20:43:54.014Z,1013.80
2018-04-16T20:48:55.395Z,1013.85
2018-04-16T20:53:55.501Z,1013.84
2018-04-16T20:58:50.489Z,1013.96
2018-04-16T21:03:50.190Z,1013.98
2018-04-16T21:08:45.964Z,1014.00
2018-04-16T21:13:43.461Z,1014.00
2018-04-16T21:18:43.960Z,1014.03
2018-04-16T21:23:44.046Z,1014.07
2018-04-16T21:28:39.989Z,1014.10
2018-04-16T21:33:40.390Z,1014.03
2018-04-16T21:38:35.580Z,1014.12
2018-04-16T21:43:31.560Z,1014.14
2018-04-16T21:48:28.930Z,1014.22
2018-04-16T21:53:26.512Z,1014.26
2018-04-16T21:58:22.066Z,1014.30
2018-04-16T22:03:22.967Z,1014.37
2018-04-16T22:08:22.731Z,1014.41
2018-04-16T22:13:17.985Z,1014.45
2018-04-16T22:18:14.533Z,1014.59
2018-04-16T22:23:11.221Z,1014.59
2018-04-16T22:28:06.973Z,1014.69
2018-04-16T22:33:06.704Z,1014.76
2018-04-16T22:38:05.824Z,1014.86
2018-04-16T22:43:01.976Z,1014.88
2018-04-16T22:48:02.670Z,1014.89
2018-04-16T22:52:57.437Z,1014.88
2018-04-16T22:57:57.287Z,1014.92
2018-04-16T23:02:52.618Z,1015.06
2018-04-16T23:07:49.019Z,1015.11
2018-04-16T23:12:46.760Z,1015.14
2018-04-16T23:17:43.195Z,1015.13
2018-04-16T23:22:40.761Z,1015.15
2018-04-16T23:27:37.660Z,1015.19
2018-04-16T23:32:33.790Z,1015.16
2018-04-16T23:37:30.533Z,1015.26
2018-04-16T23:42:31.125Z,1015.31
2018-04-16T23:47:27.160Z,1015.40
2018-04-16T23:52:22.574Z,1015.35
2018-04-16T23:57:18.395Z,1015.45
